Cheboksary Airport
UWKS : now visible

Airfield :











YOU CAN JOIN US ON...

 
LOGIN :

Register | Disclaimer

   EN    FR    IT 

 









Legend :    VFR   Marginal VFR   IFR   Intensive IFR   Very Intensive IFR
Visi :
Ceiling :
>= 8 km
>= 3000ft
5 to 8 km
1000 to 3000 ft
1500m to 5 km
500 to 1000 ft
800 to 1500m
200 to 500 ft
< 800m
< 200 ft
Symbols :   Thunderstorms  Fog  Heavy snow  Heavy precipitations  Wind > 20 kt






- Airport Elevation : 558 ft
- IATA code : CSY


UWKS - Cheboksary

CURRENT METAR :
  • 020600Z 25007MPS 9999 SCT030CB 00/M03 Q1001 R06/////// NOSIG RMK QFE736

EXPIRED METARs :
  • 020500Z 24007MPS 9999 SCT030CB M02/M03 Q1001 R06/////// NOSIG RMK QFE735
  • 020400Z 24006MPS 6000 -SHSN BKN011CB M03/M04 Q1000 R06/////// TEMPO 1500 SHSN BKN005CB RMK QFE735
  • 020300Z 24006MPS 9999 SCT030 M02/M08 Q1000 R06/////// NOSIG RMK QFE735

TAF TAF UWKS
Valid from the 02 at 06:00 until the 02 at 15:00 UTC


020453Z 0206/0215 25008G14MPS 6000 BKN016 TX04/0212Z TNM01/0206Z
TEMPO 0206/0214 3100 -SHSNRA BKN011CB



MET'MAP, your aeronautical weather chart ! - Copyright ORBIFLY December 2007 - Disclaimer

ORBIFLY MET'MAP TEAM :

Programming & Development : Alexandra Zaïnal
Concept & original design : Baudouin d'Aumeries
Assistance for programming : Marc-Olivier Méhu
Technical & hardware support : Manuel Goepfert

Contact : metmap@orbifly.com




SOURCES & CREDITS :

   NOAA       Earth
Advisory